createdAt,value
2023-01-23T00:32:53.862Z,14.40
2023-01-23T00:35:21.425Z,14.50
2023-01-23T00:37:48.614Z,15.30
2023-01-23T00:40:15.763Z,14.80
2023-01-23T00:42:42.982Z,14.60
2023-01-23T00:45:10.673Z,15.40
2023-01-23T00:47:37.797Z,14.10
2023-01-23T00:50:05.676Z,14.60
2023-01-23T00:52:32.918Z,14.80
2023-01-23T00:55:00.282Z,16.70
2023-01-23T00:57:27.943Z,15.80
2023-01-23T00:59:55.090Z,15.80
2023-01-23T01:02:22.553Z,16.00
2023-01-23T01:04:49.711Z,16.20
2023-01-23T01:07:17.063Z,16.00
2023-01-23T01:09:44.215Z,16.00
2023-01-23T01:12:11.367Z,16.50
2023-01-23T01:14:38.515Z,18.90
2023-01-23T01:17:05.665Z,17.00
2023-01-23T01:19:32.816Z,17.40
2023-01-23T01:21:59.977Z,16.60
2023-01-23T01:24:27.143Z,17.50
2023-01-23T01:26:54.273Z,17.20
2023-01-23T01:29:23.576Z,17.00
2023-01-23T01:31:50.771Z,16.10
2023-01-23T01:34:19.523Z,17.30
2023-01-23T01:36:46.812Z,17.90
2023-01-23T01:39:14.031Z,17.40
2023-01-23T01:41:42.114Z,17.10
2023-01-23T01:44:18.983Z,16.40
2023-01-23T01:46:46.470Z,17.90
2023-01-23T01:49:33.975Z,17.50
2023-01-23T01:52:06.872Z,15.50
2023-01-23T01:54:39.547Z,15.10
2023-01-23T01:57:11.817Z,15.60
2023-01-23T01:59:46.862Z,15.00
2023-01-23T02:02:21.033Z,12.50
2023-01-23T02:04:49.966Z,13.20
2023-01-23T02:07:31.965Z,13.60
2023-01-23T02:09:59.120Z,13.00
2023-01-23T02:12:27.295Z,13.10
2023-01-23T02:14:54.652Z,13.10
2023-01-23T02:17:22.020Z,13.60
2023-01-23T02:20:25.730Z,13.30
2023-01-23T02:22:59.629Z,12.30
2023-01-23T02:25:44.711Z,12.40
2023-01-23T02:28:16.051Z,14.20
2023-01-23T02:30:46.975Z,12.70
2023-01-23T02:33:20.607Z,10.40
2023-01-23T02:35:48.172Z,9.60
2023-01-23T02:38:16.127Z,9.40
2023-01-23T02:40:43.279Z,10.20
2023-01-23T02:43:14.941Z,8.50
2023-01-23T02:45:47.564Z,9.30
2023-01-23T02:48:15.487Z,9.40
2023-01-23T02:50:45.303Z,9.80
2023-01-23T02:53:13.099Z,9.00
2023-01-23T02:55:43.615Z,10.00
2023-01-23T02:58:29.594Z,10.80
2023-01-23T03:00:56.964Z,11.20
2023-01-23T03:03:24.100Z,10.00
2023-01-23T03:05:51.663Z,10.20
2023-01-23T03:08:18.813Z,9.50
2023-01-23T03:10:45.967Z,9.50
2023-01-23T03:13:13.845Z,8.80
2023-01-23T03:15:42.539Z,9.50
2023-01-23T03:18:09.985Z,10.00
2023-01-23T03:20:40.838Z,10.70
2023-01-23T03:23:08.739Z,9.30
2023-01-23T03:25:35.941Z,9.90
2023-01-23T03:28:03.806Z,11.80
2023-01-23T03:30:31.290Z,11.30
2023-01-23T03:32:58.833Z,10.70
2023-01-23T03:35:26.304Z,10.90
2023-01-23T03:37:54.566Z,10.30
2023-01-23T03:40:42.515Z,10.50
2023-01-23T03:43:11.190Z,10.40
2023-01-23T03:45:42.983Z,9.20
2023-01-23T03:48:10.230Z,9.90
2023-01-23T03:50:37.461Z,9.60
2023-01-23T03:53:04.712Z,9.90
2023-01-23T03:55:32.067Z,9.60
2023-01-23T03:57:59.110Z,9.10
2023-01-23T04:00:29.337Z,9.60
2023-01-23T04:02:59.284Z,11.00
2023-01-23T04:05:26.711Z,10.10
2023-01-23T04:07:53.965Z,10.10
2023-01-23T04:10:22.591Z,9.30
2023-01-23T04:12:54.512Z,9.90
2023-01-23T04:15:21.670Z,10.30
2023-01-23T04:17:50.276Z,10.30
2023-01-23T04:20:17.751Z,10.40
2023-01-23T04:22:45.061Z,10.30
2023-01-23T04:25:12.224Z,11.10
2023-01-23T04:27:39.882Z,10.10
2023-01-23T04:30:08.180Z,10.70
2023-01-23T04:32:35.411Z,9.80
2023-01-23T04:35:02.868Z,10.60
2023-01-23T04:37:30.322Z,8.80
2023-01-23T04:39:57.477Z,8.80
2023-01-23T04:42:24.625Z,7.60
2023-01-23T04:45:00.889Z,7.20
2023-01-23T04:47:46.992Z,6.80
2023-01-23T04:50:14.548Z,6.90
2023-01-23T04:52:43.954Z,6.00
2023-01-23T04:55:11.824Z,6.40
2023-01-23T04:57:38.965Z,6.60
2023-01-23T05:00:14.106Z,7.00
2023-01-23T05:02:41.394Z,6.40
2023-01-23T05:05:09.166Z,6.40
2023-01-23T05:07:37.618Z,5.60
2023-01-23T05:12:35.491Z,5.70
2023-01-23T05:15:02.843Z,6.70
2023-01-23T05:17:30.306Z,7.00
2023-01-23T05:19:57.470Z,7.20
2023-01-23T05:22:24.604Z,7.30
2023-01-23T05:24:52.164Z,7.10
2023-01-23T05:27:20.134Z,7.40
2023-01-23T05:29:48.310Z,7.80
2023-01-23T05:32:19.965Z,6.50
2023-01-23T05:35:02.684Z,6.70
2023-01-23T05:37:30.959Z,6.70
2023-01-23T05:40:04.925Z,7.80
2023-01-23T05:42:51.987Z,7.40
2023-01-23T05:45:48.322Z,6.10
2023-01-23T05:48:23.974Z,7.10
2023-01-23T05:50:51.142Z,6.70
2023-01-23T05:53:20.120Z,7.30
2023-01-23T05:55:47.237Z,7.70
2023-01-23T05:58:16.054Z,6.70
2023-01-23T06:01:14.435Z,6.90
2023-01-23T06:04:00.183Z,6.60
2023-01-23T06:06:34.753Z,7.00
2023-01-23T06:09:02.323Z,7.20
2023-01-23T06:11:31.513Z,7.10
2023-01-23T12:40:18.099Z,5.70
2023-01-23T12:43:12.181Z,5.90
2023-01-23T12:45:42.616Z,5.60
2023-01-23T12:48:33.129Z,6.50
2023-01-23T12:51:06.939Z,6.60
2023-01-23T12:53:37.677Z,6.20
2023-01-23T12:56:15.666Z,6.90
2023-01-23T12:59:00.320Z,6.30
2023-01-23T13:02:12.095Z,6.10
2023-01-23T13:05:06.305Z,6.50
2023-01-23T13:07:37.965Z,6.30
2023-01-23T13:10:26.722Z,6.50
2023-01-23T13:12:55.312Z,6.70
2023-01-23T13:15:38.752Z,6.20
2023-01-23T13:18:14.798Z,6.40
2023-01-23T13:21:17.601Z,6.10
2023-01-23T13:23:44.751Z,6.40
2023-01-23T13:26:23.561Z,6.70
2023-01-23T13:28:57.893Z,7.00
2023-01-23T13:31:47.546Z,7.10
2023-01-23T13:36:46.221Z,7.30
2023-01-23T13:39:16.496Z,8.00
2023-01-23T13:41:44.793Z,7.80
2023-01-23T18:24:55.811Z,14.30
2023-01-23T18:27:25.934Z,14.80
2023-01-23T18:30:03.935Z,14.00
2023-01-23T18:32:54.945Z,13.10
2023-01-23T18:35:26.194Z,15.20
2023-01-23T18:38:13.517Z,14.20
2023-01-23T18:41:08.320Z,14.30
2023-01-23T18:43:43.871Z,13.90
2023-01-23T18:46:19.156Z,14.00
2023-01-23T18:48:48.210Z,14.90
2023-01-23T18:51:35.033Z,13.90
2023-01-23T18:54:06.271Z,14.70
2023-01-23T18:57:13.051Z,15.20
2023-01-23T18:59:50.441Z,14.70
2023-01-23T19:02:52.938Z,14.10
2023-01-23T19:05:29.804Z,13.80
2023-01-23T19:08:00.057Z,14.10
2023-01-23T19:10:40.133Z,14.10
2023-01-23T19:13:40.564Z,14.10
2023-01-23T19:16:17.854Z,15.40
2023-01-23T19:19:16.449Z,14.00
2023-01-23T19:21:46.412Z,14.70
2023-01-23T19:24:21.725Z,13.90
2023-01-23T19:26:51.067Z,15.00
2023-01-23T19:29:22.427Z,16.20
2023-01-23T19:32:09.317Z,14.90
2023-01-23T19:34:39.032Z,14.80
2023-01-23T19:37:08.438Z,13.60
2023-01-23T19:39:36.817Z,14.50
2023-01-23T19:42:05.397Z,14.80
2023-01-23T19:44:33.992Z,14.20
2023-01-23T19:47:03.738Z,15.40
2023-01-23T19:52:02.209Z,14.70
2023-01-23T19:54:31.495Z,14.10
2023-01-23T19:57:00.081Z,15.00
2023-01-23T19:59:28.561Z,15.20
2023-01-23T20:02:00.051Z,16.20
2023-01-23T20:04:28.711Z,16.40
2023-01-23T20:06:57.593Z,15.30
2023-01-23T20:09:26.286Z,12.30
2023-01-23T20:11:58.248Z,15.40
2023-01-23T20:14:27.653Z,16.30
2023-01-23T20:16:56.613Z,16.20
2023-01-23T20:19:25.348Z,15.70
2023-01-23T20:21:53.714Z,16.60
2023-01-23T20:24:22.241Z,17.20
2023-01-23T20:26:50.829Z,16.10
2023-01-23T20:29:19.471Z,16.10
2023-01-23T20:31:47.958Z,15.50
2023-01-23T20:34:16.273Z,16.10
2023-01-23T20:36:44.918Z,15.40
2023-01-23T20:39:13.608Z,16.10
2023-01-23T20:41:42.091Z,15.30
2023-01-23T20:44:12.522Z,13.30
2023-01-23T20:49:13.480Z,14.50
2023-01-23T20:51:41.862Z,15.00
2023-01-23T20:54:10.655Z,15.70
2023-01-23T20:56:39.046Z,15.00
2023-01-23T20:59:23.294Z,15.20
2023-01-23T21:02:10.517Z,14.40
2023-01-23T21:04:40.733Z,15.20
2023-01-23T21:07:09.223Z,15.30
2023-01-23T21:09:37.821Z,15.50
2023-01-23T21:12:07.207Z,15.50
2023-01-23T21:14:37.538Z,14.80
2023-01-23T21:17:06.328Z,15.50
2023-01-23T21:19:36.370Z,13.90
2023-01-23T21:22:06.274Z,14.70
2023-01-23T21:24:35.165Z,16.20
2023-01-23T21:27:04.699Z,16.00
2023-01-23T21:29:33.562Z,16.10
2023-01-23T21:32:02.003Z,16.70
2023-01-23T21:34:31.355Z,14.60
2023-01-23T21:36:59.938Z,16.10
